createdAt,value
2018-08-07T00:00:08.431Z,24.00
2018-08-07T00:02:36.203Z,24.00
2018-08-07T00:05:04.502Z,24.00
2018-08-07T00:07:32.212Z,24.00
2018-08-07T00:09:59.891Z,24.00
2018-08-07T00:14:55.222Z,23.70
2018-08-07T00:17:23.010Z,23.90
2018-08-07T00:19:50.687Z,23.80
2018-08-07T00:22:18.407Z,23.30
2018-08-07T00:27:13.802Z,23.80
2018-08-07T00:29:41.508Z,23.70
2018-08-07T00:32:09.323Z,23.80
2018-08-07T00:34:37.017Z,23.70
2018-08-07T00:39:32.347Z,23.20
2018-08-07T00:44:27.679Z,23.60
2018-08-07T00:49:23.083Z,23.60
2018-08-07T00:51:50.827Z,23.50
2018-08-07T00:54:18.579Z,23.50
2018-08-07T00:56:46.331Z,23.50
2018-08-07T00:59:14.124Z,23.80
2018-08-07T01:01:41.850Z,23.90
2018-08-07T01:04:09.587Z,24.30
2018-08-07T01:09:07.065Z,23.90
2018-08-07T01:11:34.816Z,23.70
2018-08-07T01:18:57.823Z,23.70
2018-08-07T01:21:25.636Z,23.80
2018-08-07T01:23:53.403Z,23.30
2018-08-07T01:26:21.127Z,23.20
2018-08-07T01:28:48.851Z,23.20
2018-08-07T01:31:16.551Z,23.40
2018-08-07T01:33:44.307Z,23.70
2018-08-07T01:36:12.073Z,23.50
2018-08-07T01:38:39.791Z,23.40
2018-08-07T01:41:07.527Z,23.40
2018-08-07T01:43:35.299Z,23.20
2018-08-07T01:46:03.101Z,23.40
2018-08-07T01:48:31.286Z,23.40
2018-08-07T01:53:26.595Z,23.60
2018-08-07T01:55:54.354Z,23.20
2018-08-07T01:58:22.055Z,23.20
2018-08-07T02:00:49.832Z,23.00
2018-08-07T02:03:17.526Z,23.10
2018-08-07T02:05:45.330Z,23.10
2018-08-07T02:10:40.663Z,23.00
2018-08-07T02:13:08.396Z,23.00
2018-08-07T02:15:36.160Z,23.10
2018-08-07T02:18:04.015Z,23.00
2018-08-07T02:20:31.712Z,23.00
2018-08-07T02:25:27.507Z,23.00
2018-08-07T02:27:55.210Z,22.80
2018-08-07T02:32:50.624Z,22.80
2018-08-07T02:35:18.315Z,22.90
2018-08-07T02:37:46.899Z,23.10
2018-08-07T02:42:43.058Z,22.90
2018-08-07T02:45:13.822Z,22.80
2018-08-07T02:47:42.437Z,23.00
2018-08-07T02:52:38.636Z,22.70
2018-08-07T02:55:08.180Z,22.70
2018-08-07T02:57:35.884Z,23.00
2018-08-07T03:00:05.142Z,22.90
2018-08-07T03:02:32.884Z,22.80
2018-08-07T03:05:00.632Z,22.90
2018-08-07T03:07:28.459Z,22.50
2018-08-07T03:12:23.815Z,22.20
2018-08-07T03:14:51.754Z,22.40
2018-08-07T03:19:47.136Z,22.30
2018-08-07T03:22:14.831Z,22.20
2018-08-07T03:24:42.524Z,22.40
2018-08-07T03:27:10.247Z,22.40
2018-08-07T03:29:37.972Z,22.20
2018-08-07T03:32:05.695Z,22.40
2018-08-07T03:37:01.023Z,22.10
2018-08-07T03:41:56.311Z,22.10
2018-08-07T03:44:23.998Z,22.30
2018-08-07T03:46:51.714Z,22.00
2018-08-07T03:49:19.488Z,21.80
2018-08-07T03:51:47.265Z,22.30
2018-08-07T03:54:15.019Z,21.60
2018-08-07T03:56:42.731Z,21.80
2018-08-07T04:01:38.051Z,21.60
2018-08-07T04:06:33.767Z,22.00
2018-08-07T04:09:01.487Z,22.20
2018-08-07T04:11:29.262Z,22.10
2018-08-07T04:13:56.963Z,22.00
2018-08-07T04:16:24.712Z,22.10
2018-08-07T04:18:52.415Z,21.90
2018-08-07T04:23:47.743Z,22.00
2018-08-07T04:26:15.463Z,22.20
2018-08-07T04:28:43.219Z,21.90
2018-08-07T04:31:10.951Z,22.10
2018-08-07T04:33:38.711Z,22.10
2018-08-07T04:36:06.476Z,22.20
2018-08-07T04:38:34.187Z,22.20
2018-08-07T04:41:01.987Z,22.10
2018-08-07T04:45:57.381Z,22.00
2018-08-07T04:48:25.075Z,22.10
2018-08-07T04:53:20.424Z,22.10
2018-08-07T04:55:48.239Z,22.40
2018-08-07T04:58:15.970Z,22.40
2018-08-07T05:00:43.695Z,22.30
2018-08-07T05:03:11.459Z,22.80
2018-08-07T05:05:39.207Z,22.30
2018-08-07T05:08:06.936Z,22.30
2018-08-07T05:10:34.724Z,22.90
2018-08-07T05:13:02.404Z,22.30
2018-08-07T05:17:57.755Z,22.60
2018-08-07T05:20:25.493Z,22.80
2018-08-07T05:25:20.770Z,22.60
2018-08-07T05:27:48.560Z,22.70
2018-08-07T05:30:16.751Z,22.70
2018-08-07T05:32:44.582Z,22.40
2018-08-07T05:35:13.511Z,22.90
2018-08-07T05:40:09.975Z,22.60
2018-08-07T05:42:37.785Z,22.80
2018-08-07T05:45:06.823Z,22.80
2018-08-07T05:47:34.699Z,22.70
2018-08-07T05:52:30.167Z,22.70
2018-08-07T05:54:57.953Z,22.90
2018-08-07T05:57:25.707Z,23.00
2018-08-07T05:59:53.407Z,23.00
2018-08-07T06:02:21.199Z,22.90
2018-08-07T06:04:48.940Z,23.50
2018-08-07T06:09:44.359Z,23.40
2018-08-07T06:12:12.075Z,23.30
2018-08-07T06:14:39.884Z,23.60
2018-08-07T06:17:07.646Z,23.10
2018-08-07T06:19:35.383Z,23.20
2018-08-07T06:22:03.151Z,23.70
2018-08-07T06:24:30.855Z,23.80
2018-08-07T06:29:26.156Z,23.60
2018-08-07T06:31:53.912Z,23.80
2018-08-07T06:34:21.655Z,23.90
2018-08-07T06:36:49.404Z,24.00
2018-08-07T06:39:17.122Z,24.10
2018-08-07T06:41:44.873Z,24.10
2018-08-07T06:44:12.673Z,24.40
2018-08-07T06:49:08.062Z,24.60
2018-08-07T06:51:35.803Z,24.70
2018-08-07T06:54:03.650Z,24.90
2018-08-07T06:56:31.392Z,24.90
2018-08-07T06:58:59.110Z,24.80
2018-08-07T07:01:26.931Z,25.30
2018-08-07T07:03:54.656Z,25.00
2018-08-07T07:06:22.375Z,25.10
2018-08-07T07:08:50.119Z,25.50
2018-08-07T07:11:17.943Z,25.10
2018-08-07T07:13:45.718Z,25.10
2018-08-07T07:16:13.437Z,25.80
2018-08-07T07:18:41.175Z,25.60
2018-08-07T07:21:08.926Z,25.80
2018-08-07T07:26:04.337Z,26.00
2018-08-07T07:28:32.027Z,26.40
2018-08-07T07:30:59.764Z,26.10
2018-08-07T07:33:27.588Z,25.90
2018-08-07T07:35:55.383Z,26.50
2018-08-07T07:38:23.095Z,26.70
2018-08-07T07:40:50.779Z,27.00
2018-08-07T07:43:19.356Z,27.00
2018-08-07T07:45:47.134Z,27.50
2018-08-07T07:48:14.922Z,27.20
2018-08-07T07:50:42.647Z,26.90
2018-08-07T07:53:10.460Z,27.40
2018-08-07T07:55:38.206Z,27.70
2018-08-07T07:58:06.187Z,27.30
2018-08-07T08:00:34.008Z,27.60
2018-08-07T08:03:01.750Z,27.40
2018-08-07T08:07:57.075Z,27.90
2018-08-07T08:10:25.067Z,28.40
2018-08-07T08:12:52.936Z,28.20
2018-08-07T08:15:20.759Z,28.60
2018-08-07T08:17:49.076Z,29.00
2018-08-07T08:20:20.035Z,28.90
2018-08-07T08:22:48.591Z,29.40
2018-08-07T08:25:16.349Z,30.00
2018-08-07T08:27:44.107Z,30.20
2018-08-07T08:32:41.076Z,30.90
2018-08-07T08:35:11.338Z,32.10
2018-08-07T08:37:39.675Z,32.20
2018-08-07T08:42:37.167Z,33.30
2018-08-07T08:45:07.532Z,34.50
2018-08-07T08:47:35.293Z,35.70
2018-08-07T08:50:03.998Z,35.80
2018-08-07T08:52:31.827Z,36.90
2018-08-07T08:54:59.606Z,37.80
2018-08-07T08:57:27.419Z,37.60
2018-08-07T09:02:22.810Z,37.90
2018-08-07T09:04:50.630Z,37.90
2018-08-07T09:07:18.391Z,38.00
2018-08-07T09:09:46.110Z,37.80
2018-08-07T09:12:13.887Z,39.20
2018-08-07T09:14:41.595Z,39.80
2018-08-07T09:17:09.415Z,38.80
2018-08-07T09:19:37.291Z,38.20
2018-08-07T09:22:05.247Z,38.50
2018-08-07T09:24:33.027Z,38.60
2018-08-07T09:27:00.789Z,37.20
2018-08-07T09:29:28.518Z,37.60
2018-08-07T09:31:56.280Z,38.90
2018-08-07T09:34:23.964Z,39.80
2018-08-07T09:36:51.811Z,40.00
2018-08-07T09:39:19.623Z,40.50
2018-08-07T09:44:14.988Z,39.60
2018-08-07T09:46:42.756Z,39.50
2018-08-07T09:49:10.516Z,39.90
2018-08-07T09:51:38.339Z,40.70
2018-08-07T09:56:33.735Z,40.60
2018-08-07T09:59:01.598Z,41.10
2018-08-07T10:01:36.891Z,41.60
2018-08-07T10:04:04.715Z,42.50
2018-08-07T10:06:32.427Z,42.40
2018-08-07T10:09:00.223Z,42.60
2018-08-07T10:11:27.955Z,42.60
2018-08-07T10:13:55.791Z,41.60
2018-08-07T10:16:23.536Z,42.40
2018-08-07T10:18:51.311Z,43.40
2018-08-07T10:21:19.043Z,44.60
2018-08-07T10:23:46.759Z,45.00
2018-08-07T10:26:14.551Z,45.20
2018-08-07T10:28:42.326Z,46.70
2018-08-07T10:31:10.183Z,46.40
2018-08-07T10:33:37.933Z,44.80
2018-08-07T10:36:05.723Z,45.40
2018-08-07T10:38:33.489Z,46.00
2018-08-07T10:41:01.294Z,45.30
2018-08-07T10:43:29.016Z,44.30
2018-08-07T10:45:56.936Z,45.70
2018-08-07T10:48:24.635Z,46.90
2018-08-07T10:50:52.506Z,47.70
2018-08-07T10:53:20.173Z,48.50
2018-08-07T10:55:47.948Z,48.70
2018-08-07T10:58:15.694Z,47.60
2018-08-07T11:00:43.483Z,48.20
2018-08-07T11:03:11.279Z,47.10
2018-08-07T11:05:39.599Z,47.60
2018-08-07T11:10:34.995Z,46.70
2018-08-07T11:13:02.747Z,45.40
2018-08-07T11:15:33.114Z,45.00
2018-08-07T11:18:01.463Z,45.90
2018-08-07T11:22:58.753Z,46.20
2018-08-07T11:27:55.055Z,46.80
2018-08-07T11:30:24.683Z,46.20
2018-08-07T11:32:53.179Z,45.70
2018-08-07T11:37:50.571Z,47.10
2018-08-07T11:40:19.749Z,46.40
2018-08-07T11:42:48.450Z,46.20
2018-08-07T11:45:17.535Z,46.60
2018-08-07T11:47:45.326Z,46.30
2018-08-07T11:50:15.112Z,45.50
2018-08-07T11:52:42.998Z,44.90
2018-08-07T11:55:13.090Z,44.90
2018-08-07T12:00:17.098Z,45.60
2018-08-07T12:05:13.232Z,44.40
2018-08-07T12:07:41.044Z,44.10
2018-08-07T12:10:10.639Z,44.90
2018-08-07T12:12:38.735Z,45.50
2018-08-07T12:15:08.088Z,45.90
2018-08-07T12:17:36.035Z,44.70
2018-08-07T12:20:04.260Z,43.40
2018-08-07T12:22:32.375Z,43.00
2018-08-07T12:25:00.496Z,42.80
2018-08-07T12:29:55.947Z,42.90
2018-08-07T12:32:23.719Z,41.70
2018-08-07T12:34:51.440Z,41.20
2018-08-07T12:39:46.932Z,40.40
2018-08-07T12:42:14.663Z,41.20
2018-08-07T12:44:42.423Z,41.80
2018-08-07T12:47:10.155Z,41.00
2018-08-07T12:49:38.250Z,41.30
2018-08-07T12:52:06.318Z,41.20
2018-08-07T12:57:02.023Z,41.10
2018-08-07T12:59:29.817Z,40.80
2018-08-07T13:01:57.572Z,40.00
2018-08-07T13:06:53.043Z,39.40
2018-08-07T13:11:48.421Z,39.50
2018-08-07T13:16:43.919Z,38.70
2018-08-07T13:19:11.715Z,38.80
2018-08-07T13:24:07.244Z,39.50
2018-08-07T13:26:35.442Z,39.50
2018-08-07T13:29:03.180Z,39.60
2018-08-07T13:31:30.974Z,39.60
2018-08-07T13:33:58.727Z,39.90
2018-08-07T13:36:26.520Z,40.00
2018-08-07T13:38:54.274Z,39.90
2018-08-07T13:41:22.019Z,40.20
2018-08-07T13:43:49.768Z,40.30
2018-08-07T13:46:17.599Z,40.10
2018-08-07T13:49:28.087Z,39.90
2018-08-07T13:51:55.959Z,40.00
2018-08-07T13:54:23.735Z,39.80
2018-08-07T13:56:51.496Z,39.70
2018-08-07T13:59:19.360Z,39.30
2018-08-07T14:01:47.137Z,39.50
2018-08-07T14:04:15.023Z,39.70
2018-08-07T14:06:42.780Z,39.90
2018-08-07T14:09:10.684Z,39.70
2018-08-07T14:11:38.505Z,39.50
2018-08-07T14:14:06.313Z,39.30
2018-08-07T14:16:34.550Z,39.50
2018-08-07T14:19:02.537Z,39.70
2018-08-07T14:21:30.271Z,39.90
2018-08-07T14:23:58.133Z,39.90
2018-08-07T14:26:25.911Z,39.70
2018-08-07T14:28:53.772Z,39.70
2018-08-07T14:31:21.435Z,39.70
2018-08-07T14:33:49.208Z,39.70
2018-08-07T14:36:16.975Z,39.40
2018-08-07T14:38:44.989Z,39.50
2018-08-07T14:41:12.915Z,38.80
2018-08-07T14:43:40.731Z,38.60
2018-08-07T14:46:08.527Z,39.00
2018-08-07T14:48:36.383Z,39.50
2018-08-07T14:51:04.221Z,39.30
2018-08-07T14:53:32.132Z,39.10
2018-08-07T14:55:59.958Z,39.50
2018-08-07T14:58:27.881Z,39.60
2018-08-07T15:00:55.653Z,39.30
2018-08-07T15:03:23.509Z,39.00
2018-08-07T15:05:51.391Z,38.60
2018-08-07T15:08:19.175Z,38.30
2018-08-07T15:10:46.990Z,38.30
2018-08-07T15:13:14.823Z,38.60
2018-08-07T15:15:42.603Z,38.90
2018-08-07T15:18:10.339Z,38.90
2018-08-07T15:20:38.251Z,38.80
2018-08-07T15:23:06.132Z,38.90
2018-08-07T15:25:33.927Z,38.60
2018-08-07T15:28:01.720Z,38.70
2018-08-07T15:30:30.217Z,38.60
2018-08-07T15:32:57.995Z,38.30
2018-08-07T15:35:28.195Z,38.20
2018-08-07T15:37:56.648Z,38.00
2018-08-07T15:40:24.434Z,38.20
2018-08-07T15:42:52.303Z,38.20
2018-08-07T15:45:21.675Z,38.10
2018-08-07T15:47:49.726Z,37.70
2018-08-07T15:50:18.222Z,37.80
2018-08-07T15:52:48.368Z,37.90
2018-08-07T15:55:18.067Z,37.80
2018-08-07T15:57:45.817Z,38.00
2018-08-07T16:00:17.886Z,38.00
2018-08-07T16:02:45.607Z,37.90
2018-08-07T16:05:13.335Z,37.90
2018-08-07T16:07:41.063Z,37.80
2018-08-07T16:10:11.271Z,37.60
2018-08-07T16:12:39.071Z,37.40
2018-08-07T16:15:06.807Z,37.50
2018-08-07T16:17:34.596Z,37.50
2018-08-07T16:20:02.378Z,37.50
2018-08-07T16:22:30.246Z,37.60
2018-08-07T16:24:57.920Z,37.40
2018-08-07T16:27:25.649Z,37.50
2018-08-07T16:29:53.454Z,37.50
2018-08-07T16:32:21.214Z,37.70
2018-08-07T16:34:48.958Z,37.80
2018-08-07T16:37:16.704Z,37.50
2018-08-07T16:39:44.451Z,37.50
2018-08-07T16:42:12.610Z,37.30
2018-08-07T16:44:40.344Z,37.10
2018-08-07T16:47:08.058Z,37.10
2018-08-07T16:49:35.839Z,37.30
2018-08-07T16:52:03.652Z,37.20
2018-08-07T16:54:31.412Z,36.90
2018-08-07T16:56:59.187Z,36.70
2018-08-07T16:59:26.946Z,36.60
2018-08-07T17:01:54.698Z,36.70
2018-08-07T17:04:22.567Z,36.60
2018-08-07T17:06:50.379Z,36.40
2018-08-07T17:09:18.123Z,36.30
2018-08-07T17:11:45.916Z,36.20
2018-08-07T17:14:13.663Z,36.10
2018-08-07T17:16:41.429Z,36.00
2018-08-07T17:19:09.284Z,36.10
2018-08-07T17:21:37.123Z,36.10
2018-08-07T17:24:05.018Z,36.00
2018-08-07T17:26:33.166Z,35.50
2018-08-07T17:29:00.943Z,35.70
2018-08-07T17:31:28.659Z,35.30
2018-08-07T17:33:56.470Z,35.60
2018-08-07T17:36:24.285Z,35.40
2018-08-07T17:38:52.283Z,35.20
2018-08-07T17:41:20.085Z,35.30
2018-08-07T17:43:47.849Z,35.20
2018-08-07T17:46:15.567Z,34.60
2018-08-07T17:48:43.295Z,34.80
2018-08-07T17:51:11.145Z,34.70
2018-08-07T17:53:38.910Z,34.50
2018-08-07T17:56:06.806Z,34.60
2018-08-07T17:58:34.569Z,34.20
2018-08-07T18:01:02.381Z,34.40
2018-08-07T18:03:30.767Z,34.50
2018-08-07T18:05:58.543Z,34.40
2018-08-07T18:08:26.315Z,34.30
2018-08-07T18:10:53.995Z,34.20
2018-08-07T18:13:21.764Z,34.20
2018-08-07T18:15:49.558Z,34.10
2018-08-07T18:18:17.258Z,33.90
2018-08-07T18:20:44.990Z,33.90
2018-08-07T18:23:12.721Z,33.60
2018-08-07T18:25:40.438Z,33.60
2018-08-07T18:28:08.222Z,33.50
2018-08-07T18:30:35.913Z,33.30
2018-08-07T18:33:03.759Z,33.30
2018-08-07T18:35:31.470Z,32.90
2018-08-07T18:37:59.198Z,33.00
2018-08-07T18:40:26.906Z,32.90
2018-08-07T18:42:54.651Z,32.80
2018-08-07T18:45:22.437Z,32.50
2018-08-07T18:47:50.270Z,32.30
2018-08-07T18:50:19.676Z,32.40
2018-08-07T18:52:47.561Z,32.30
2018-08-07T18:55:15.604Z,32.30
2018-08-07T18:57:44.519Z,32.20
2018-08-07T19:00:16.512Z,32.10
2018-08-07T19:02:44.298Z,32.20
2018-08-07T19:05:13.963Z,31.90
2018-08-07T19:07:41.728Z,31.70
2018-08-07T19:10:10.259Z,31.50
2018-08-07T19:12:38.075Z,31.40
2018-08-07T19:15:06.150Z,31.40
2018-08-07T19:17:33.992Z,31.20
2018-08-07T19:20:01.765Z,30.90
2018-08-07T19:22:29.575Z,31.10
2018-08-07T19:24:57.738Z,30.90
2018-08-07T19:27:25.542Z,30.60
2018-08-07T19:29:53.318Z,30.70
2018-08-07T19:32:21.123Z,30.30
2018-08-07T19:34:48.879Z,30.50
2018-08-07T19:37:16.643Z,30.00
2018-08-07T19:39:44.430Z,30.50
2018-08-07T19:42:12.280Z,30.20
2018-08-07T19:44:40.118Z,30.00
2018-08-07T19:47:07.961Z,30.20
2018-08-07T19:49:35.847Z,30.10
2018-08-07T19:52:03.809Z,29.70
2018-08-07T19:54:31.567Z,29.40
2018-08-07T19:56:59.387Z,29.60
2018-08-07T19:59:27.171Z,29.60
2018-08-07T20:01:54.988Z,29.50
2018-08-07T20:04:23.263Z,29.40
2018-08-07T20:06:51.088Z,29.40
2018-08-07T20:09:18.897Z,29.20
2018-08-07T20:11:46.707Z,29.40
2018-08-07T20:14:14.483Z,29.20
2018-08-07T20:16:42.385Z,29.30
2018-08-07T20:19:10.148Z,29.00
2018-08-07T20:21:37.985Z,28.70
2018-08-07T20:24:05.911Z,28.50
2018-08-07T20:26:33.693Z,29.00
2018-08-07T20:29:01.476Z,28.40
2018-08-07T20:31:29.280Z,28.60
2018-08-07T20:33:57.127Z,28.70
2018-08-07T20:36:24.995Z,28.90
2018-08-07T20:38:52.744Z,28.50
2018-08-07T20:41:20.487Z,28.70
2018-08-07T20:43:48.282Z,28.40
2018-08-07T20:46:16.119Z,28.30
2018-08-07T20:48:43.987Z,28.40
2018-08-07T20:51:11.829Z,28.30
2018-08-07T20:53:39.558Z,28.00
2018-08-07T20:56:07.455Z,28.00
2018-08-07T20:58:35.285Z,28.30
2018-08-07T21:01:03.154Z,28.20
2018-08-07T21:03:31.527Z,28.10
2018-08-07T21:05:59.292Z,27.80
2018-08-07T21:08:27.191Z,28.00
2018-08-07T21:10:55.040Z,28.10
2018-08-07T21:13:22.927Z,27.90
2018-08-07T21:15:50.736Z,28.30
2018-08-07T21:18:18.555Z,28.40
2018-08-07T21:20:46.331Z,28.60
2018-08-07T21:23:14.127Z,28.70
2018-08-07T21:25:41.835Z,28.90
2018-08-07T21:28:09.572Z,29.00
2018-08-07T21:30:37.315Z,28.90
2018-08-07T21:33:05.124Z,29.10
2018-08-07T21:35:32.899Z,29.30
2018-08-07T21:38:00.644Z,29.30
2018-08-07T21:40:28.427Z,29.20
2018-08-07T21:42:56.595Z,29.60
2018-08-07T21:45:24.438Z,29.10
2018-08-07T21:47:52.195Z,29.30
2018-08-07T21:50:21.551Z,29.40
2018-08-07T21:52:49.376Z,29.50
2018-08-07T21:55:18.104Z,29.30
2018-08-07T21:57:45.929Z,29.20
2018-08-07T22:00:15.582Z,29.00
2018-08-07T22:02:43.527Z,29.10
2018-08-07T22:05:12.275Z,28.80
2018-08-07T22:07:40.299Z,29.00
2018-08-07T22:10:22.851Z,29.20
2018-08-07T22:12:50.635Z,28.90
2018-08-07T22:15:19.175Z,28.80
2018-08-07T22:17:48.396Z,28.80
2018-08-07T22:20:16.144Z,28.60
2018-08-07T22:22:43.854Z,28.10
2018-08-07T22:25:11.767Z,28.40
2018-08-07T22:27:39.503Z,28.50
2018-08-07T22:30:16.187Z,28.10
2018-08-07T22:32:43.928Z,28.20
2018-08-07T22:35:11.763Z,28.00
2018-08-07T22:37:39.623Z,27.80
2018-08-07T22:40:07.914Z,27.90
2018-08-07T22:42:36.236Z,27.90
2018-08-07T22:45:05.416Z,27.80
2018-08-07T22:47:33.148Z,28.30
2018-08-07T22:50:00.859Z,27.90
2018-08-07T22:52:28.609Z,28.30
2018-08-07T22:54:56.374Z,28.10
2018-08-07T22:57:24.238Z,28.10
2018-08-07T22:59:51.942Z,28.00
2018-08-07T23:02:19.690Z,27.70
2018-08-07T23:04:47.387Z,27.90
2018-08-07T23:07:15.081Z,27.90
2018-08-07T23:09:42.922Z,27.80
2018-08-07T23:12:10.646Z,28.00
2018-08-07T23:14:38.446Z,27.50
2018-08-07T23:17:06.186Z,27.50
2018-08-07T23:19:34.055Z,27.50
2018-08-07T23:22:01.818Z,27.70
2018-08-07T23:24:29.559Z,27.70
2018-08-07T23:26:57.246Z,27.90
2018-08-07T23:29:25.025Z,28.30
2018-08-07T23:31:52.750Z,27.90
2018-08-07T23:34:20.486Z,27.70
2018-08-07T23:36:48.190Z,28.00
2018-08-07T23:39:15.920Z,27.50
2018-08-07T23:41:43.632Z,27.70
2018-08-07T23:44:11.349Z,27.60
2018-08-07T23:46:39.032Z,27.70
2018-08-07T23:49:06.816Z,27.80
2018-08-07T23:51:34.543Z,27.40
2018-08-07T23:54:02.243Z,27.40
2018-08-07T23:56:29.948Z,27.50
2018-08-07T23:58:57.654Z,27.40
